Time;durP1;ratioP1;P1;durP2;ratioP2;P2;SDS_P1;SDS_P2;PMS_P1;PMS_P2;Temp;Humidity;BMP_temperature;BMP_pressure;BME280_temperature;BME280_humidity;BME280_pressure;Samples;Min_cycle;Max_cycle;Signal;HPM_P1;HPM_P2
2023/08/29 00:00:27;;;;;;;1.60;1.50;;;;;;;15.05;100.00;95077.44;6274985;22;20176;-87
2023/08/29 00:02:53;;;;;;;1.45;1.35;;;;;;;14.99;100.00;95065.38;6274633;22;20797;-86
2023/08/29 00:05:20;;;;;;;1.30;1.20;;;;;;;14.98;100.00;95070.75;6274989;22;20176;-88
2023/08/29 00:07:48;;;;;;;1.30;1.20;;;;;;;14.98;100.00;95089.69;6276244;22;20631;-88
2023/08/29 00:10:14;;;;;;;1.75;1.65;;;;;;;15.01;100.00;95094.44;6276888;22;20746;-87
2023/08/29 00:12:41;;;;;;;1.60;1.50;;;;;;;15.03;100.00;95089.81;6276369;22;20670;-86
2023/08/29 00:15:09;;;;;;;2.10;1.52;;;;;;;15.00;100.00;95087.69;6276488;22;20176;-87
2023/08/29 00:17:36;;;;;;;1.77;1.67;;;;;;;15.04;100.00;95091.41;6275782;22;20238;-86
2023/08/29 00:20:03;;;;;;;1.65;1.55;;;;;;;15.05;100.00;95076.66;6276836;22;20512;-86
2023/08/29 00:22:29;;;;;;;1.67;1.58;;;;;;;15.11;100.00;95074.00;6277784;22;20176;-86
2023/08/29 00:24:58;;;;;;;1.98;1.88;;;;;;;15.05;100.00;95074.84;6276756;22;20770;-88
2023/08/29 00:27:24;;;;;;;2.05;1.85;;;;;;;15.06;100.00;95075.63;6277150;22;20258;-87
2023/08/29 00:29:51;;;;;;;1.80;1.70;;;;;;;14.95;100.00;95087.53;6277349;22;20176;-88
2023/08/29 00:32:17;;;;;;;1.63;1.52;;;;;;;15.03;100.00;95078.66;6276097;22;20179;-87
2023/08/29 00:34:44;;;;;;;1.80;1.70;;;;;;;15.01;100.00;95070.34;6276276;22;20183;-86
2023/08/29 00:37:10;;;;;;;2.08;1.98;;;;;;;14.92;100.00;95077.59;6275388;22;20192;-87
2023/08/29 00:39:37;;;;;;;2.10;2.00;;;;;;;14.93;100.00;95070.59;6274650;22;20176;-86
2023/08/29 00:42:05;;;;;;;2.20;2.10;;;;;;;14.94;100.00;95064.41;6275090;22;20183;-88
2023/08/29 00:44:31;;;;;;;1.98;1.88;;;;;;;14.95;100.00;95061.63;6275125;22;20505;-87
2023/08/29 00:46:58;;;;;;;2.50;2.30;;;;;;;14.90;100.00;95068.44;6275307;22;20192;-87
2023/08/29 00:49:27;;;;;;;2.30;2.20;;;;;;;14.93;100.00;95068.81;6274569;22;20192;-87
2023/08/29 00:51:54;;;;;;;2.30;2.20;;;;;;;14.97;100.00;95041.44;6274058;22;20184;-87
2023/08/29 00:54:21;;;;;;;2.42;2.20;;;;;;;14.96;100.00;95032.09;6274644;22;20538;-87
2023/08/29 00:56:49;;;;;;;2.20;2.00;;;;;;;14.99;100.00;95008.31;6273581;22;20271;-87
2023/08/29 00:59:17;;;;;;;2.15;2.05;;;;;;;14.83;100.00;95025.22;6275940;22;20195;-87
2023/08/29 01:01:44;;;;;;;2.58;2.20;;;;;;;14.85;100.00;95027.59;6275389;22;20636;-87
2023/08/29 02:05:19;;;;;;;2.92;1.40;;;;;;;14.07;100.00;95009.22;6273124;22;20147;-85
2023/08/29 02:07:46;;;;;;;1.60;1.50;;;;;;;14.09;100.00;95002.81;6273484;22;20196;-85
2023/08/29 02:10:12;;;;;;;1.50;1.40;;;;;;;14.07;100.00;95002.22;6274461;22;20180;-86
2023/08/29 02:12:39;;;;;;;1.40;1.30;;;;;;;14.05;100.00;94993.88;6274824;22;20172;-88
2023/08/29 02:15:06;;;;;;;1.20;1.20;;;;;;;14.02;100.00;94988.38;6274486;22;20222;-86
2023/08/29 02:17:33;;;;;;;1.50;1.40;;;;;;;14.04;100.00;95007.06;6275243;22;20211;-87
2023/08/29 02:20:00;;;;;;;1.60;1.50;;;;;;;14.09;100.00;94996.84;6274392;22;20171;-87
2023/08/29 02:22:30;;;;;;;1.60;1.50;;;;;;;14.08;100.00;94977.94;6273920;22;20188;-86
2023/08/29 02:24:57;;;;;;;1.65;1.55;;;;;;;13.97;100.00;94988.19;6273776;22;20164;-87
2023/08/29 02:27:23;;;;;;;1.60;1.50;;;;;;;13.92;100.00;94998.38;6275598;22;20192;-87
2023/08/29 02:29:50;;;;;;;1.70;1.60;;;;;;;13.87;100.00;95003.41;6275644;22;20245;-86
2023/08/29 02:32:17;;;;;;;1.80;1.70;;;;;;;13.87;100.00;95008.56;6275800;22;20184;-86
2023/08/29 02:34:44;;;;;;;1.60;1.50;;;;;;;13.90;100.00;95013.31;6274935;22;20265;-87
2023/08/29 02:37:10;;;;;;;1.75;1.50;;;;;;;13.95;100.00;95010.91;6275070;22;20173;-88
2023/08/29 02:39:38;;;;;;;1.75;1.65;;;;;;;13.98;100.00;95013.06;6275769;22;20176;-86
2023/08/29 02:42:05;;;;;;;1.80;1.70;;;;;;;13.94;100.00;95007.53;6276834;22;20176;-86
2023/08/29 02:44:31;;;;;;;1.70;1.60;;;;;;;13.89;100.00;95002.19;6277499;22;20180;-86
2023/08/29 02:46:58;;;;;;;1.88;1.60;;;;;;;13.91;100.00;95020.88;6278269;22;20573;-88
2023/08/29 02:49:24;;;;;;;1.70;1.60;;;;;;;13.96;100.00;95015.88;6278577;22;20200;-88
2023/08/29 02:51:51;;;;;;;1.40;1.30;;;;;;;14.05;100.00;94985.31;6278242;22;20176;-86
2023/08/29 02:54:18;;;;;;;1.60;1.50;;;;;;;14.00;100.00;94987.78;6278653;22;20187;-88
2023/08/29 02:56:45;;;;;;;1.70;1.60;;;;;;;13.95;100.00;94982.44;6277310;22;20176;-86
2023/08/29 02:59:12;;;;;;;1.67;1.58;;;;;;;14.03;100.00;94995.91;6277692;22;20271;-88
2023/08/29 03:01:38;;;;;;;1.67;1.58;;;;;;;13.96;100.00;94996.97;6277380;22;20184;-87
2023/08/29 03:04:05;;;;;;;1.70;1.60;;;;;;;14.03;100.00;94995.13;6275510;22;20176;-88
2023/08/29 03:06:31;;;;;;;1.70;1.60;;;;;;;13.96;100.00;94992.59;6275560;22;20531;-88
2023/08/29 03:08:58;;;;;;;1.67;1.58;;;;;;;14.00;100.00;95013.66;6275643;22;20192;-87
2023/08/29 03:11:24;;;;;;;1.77;1.67;;;;;;;14.02;100.00;95009.88;6275478;22;20195;-87
2023/08/29 03:13:52;;;;;;;2.25;1.98;;;;;;;14.03;100.00;95006.28;6275257;22;20171;-87
2023/08/29 03:16:18;;;;;;;2.00;1.90;;;;;;;14.05;100.00;95013.81;6275591;22;20176;-89
2023/08/29 03:18:45;;;;;;;2.58;2.38;;;;;;;13.99;100.00;94988.78;6275162;22;20731;-87
2023/08/29 03:21:11;;;;;;;2.20;2.10;;;;;;;14.00;100.00;94991.16;6275375;22;20621;-85
2023/08/29 03:23:38;;;;;;;2.33;2.13;;;;;;;14.01;100.00;95007.47;6275586;22;20180;-88
2023/08/29 03:26:06;;;;;;;2.00;1.90;;;;;;;13.98;100.00;95016.47;6276112;22;20730;-87
2023/08/29 03:28:32;;;;;;;2.20;2.10;;;;;;;14.03;100.00;94998.50;6276218;22;20196;-87
2023/08/29 03:31:10;;;;;;;2.17;2.08;;;;;;;14.06;100.00;94989.50;6277014;22;20176;-88
2023/08/29 03:33:37;;;;;;;2.17;2.08;;;;;;;14.08;100.00;94977.94;6276363;22;20161;-87
2023/08/29 03:36:04;;;;;;;2.30;2.20;;;;;;;14.08;100.00;94995.25;6275852;22;20172;-86
2023/08/29 03:38:31;;;;;;;4.65;2.30;;;;;;;14.03;100.00;95002.88;6276090;22;20203;-84
2023/08/29 03:40:57;;;;;;;2.50;2.30;;;;;;;14.07;100.00;94996.25;6275156;22;20187;-85
2023/08/29 03:43:26;;;;;;;2.60;2.40;;;;;;;14.11;100.00;94995.63;6277535;22;20183;-86
2023/08/29 03:45:56;;;;;;;2.40;2.28;;;;;;;14.07;100.00;94994.47;6278297;22;20172;-85
2023/08/29 03:48:24;;;;;;;2.30;2.10;;;;;;;14.02;100.00;95015.03;6278394;22;20196;-86
2023/08/29 03:50:51;;;;;;;2.20;2.10;;;;;;;14.08;100.00;95005.63;6278336;22;20183;-86
2023/08/29 03:53:17;;;;;;;2.42;2.25;;;;;;;14.07;100.00;94999.66;6277294;22;20179;-86
2023/08/29 03:55:43;;;;;;;2.10;2.00;;;;;;;14.10;100.00;95008.78;6276221;22;20541;-87
2023/08/29 03:58:10;;;;;;;1.92;1.83;;;;;;;14.12;100.00;94997.22;6277640;22;20705;-85
2023/08/29 04:00:37;;;;;;;2.70;2.10;;;;;;;14.09;100.00;95015.75;6278245;22;20175;-86
2023/08/29 04:03:05;;;;;;;2.88;2.20;;;;;;;14.03;100.00;95008.84;6277152;22;20183;-86
2023/08/29 04:05:35;;;;;;;2.42;2.20;;;;;;;14.03;100.00;95015.84;6276442;22;20227;-86
2023/08/29 04:08:01;;;;;;;2.30;2.10;;;;;;;14.05;100.00;95006.81;6276904;22;20253;-86
2023/08/29 04:10:27;;;;;;;2.60;2.00;;;;;;;14.08;100.00;95003.81;6276169;22;20643;-87
2023/08/29 04:12:54;;;;;;;2.08;1.98;;;;;;;14.09;100.00;95020.94;6276046;22;20679;-87
2023/08/29 04:15:20;;;;;;;2.10;2.00;;;;;;;14.13;100.00;95008.38;6276879;22;20184;-85
2023/08/29 04:17:47;;;;;;;1.97;1.80;;;;;;;14.16;100.00;95018.31;6276941;22;20196;-86
2023/08/29 04:20:13;;;;;;;1.73;1.63;;;;;;;14.10;100.00;95014.75;6275923;22;20176;-86
2023/08/29 04:22:41;;;;;;;1.70;1.60;;;;;;;14.10;100.00;95009.56;6276856;22;20275;-87
2023/08/29 04:25:08;;;;;;;1.70;1.60;;;;;;;14.06;100.00;95013.59;6277315;22;20179;-87
2023/08/29 04:27:35;;;;;;;1.73;1.63;;;;;;;14.11;100.00;95025.91;6276805;22;20204;-85
2023/08/29 04:30:02;;;;;;;1.60;1.50;;;;;;;14.04;100.00;95018.22;6277032;22;20255;-87
2023/08/29 04:32:33;;;;;;;1.70;1.60;;;;;;;14.09;100.00;95022.72;6276724;22;20723;-85
2023/08/29 04:35:00;;;;;;;1.52;1.42;;;;;;;14.07;100.00;95024.75;6277208;22;20158;-89
2023/08/29 04:37:26;;;;;;;1.60;1.50;;;;;;;14.12;100.00;95036.06;6277918;22;20427;-86
2023/08/29 04:39:54;;;;;;;1.77;1.67;;;;;;;14.16;100.00;95026.88;6276902;22;20183;-86
2023/08/29 04:42:21;;;;;;;2.13;1.67;;;;;;;14.12;100.00;95014.53;6276548;22;20175;-88
2023/08/29 04:44:47;;;;;;;1.55;1.45;;;;;;;14.16;100.00;95037.22;6276154;22;20191;-85
2023/08/29 04:47:13;;;;;;;1.45;1.35;;;;;;;14.18;100.00;95024.06;6275815;22;20674;-86
2023/08/29 04:49:40;;;;;;;1.50;1.40;;;;;;;14.22;100.00;95022.63;6275743;22;20233;-88
2023/08/29 04:52:06;;;;;;;1.70;1.60;;;;;;;14.26;100.00;95023.78;6276585;22;20176;-86
2023/08/29 04:54:33;;;;;;;1.52;1.42;;;;;;;14.15;100.00;95012.34;6275112;22;20176;-85
2023/08/29 04:57:02;;;;;;;1.37;1.27;;;;;;;14.15;100.00;95009.75;6274273;22;20697;-85
2023/08/29 04:59:29;;;;;;;1.73;1.33;;;;;;;14.12;100.00;95020.53;6275939;22;20249;-86
2023/08/29 05:01:55;;;;;;;1.47;1.37;;;;;;;14.08;100.00;95050.41;6275091;22;20194;-87
2023/08/29 05:04:22;;;;;;;1.70;1.30;;;;;;;14.17;100.00;95048.38;6275708;22;20188;-85
2023/08/29 05:06:49;;;;;;;1.23;1.20;;;;;;;14.27;100.00;95040.91;6276462;22;20620;-87
2023/08/29 05:09:16;;;;;;;3.28;1.50;;;;;;;14.18;100.00;95045.56;6276274;22;20193;-87
2023/08/29 05:11:42;;;;;;;1.85;1.40;;;;;;;14.15;100.00;95040.81;6276889;22;20215;-87
2023/08/29 05:14:10;;;;;;;2.30;1.40;;;;;;;14.24;100.00;95035.38;6276461;22;20309;-87
2023/08/29 05:16:36;;;;;;;1.58;1.30;;;;;;;14.24;100.00;95048.31;6276389;22;20710;-88
2023/08/29 05:19:04;;;;;;;1.27;1.20;;;;;;;14.29;100.00;95046.66;6275440;22;20203;-86
2023/08/29 05:21:31;;;;;;;1.33;1.23;;;;;;;14.33;100.00;95034.88;6276507;22;20176;-87
2023/08/29 05:23:57;;;;;;;1.35;1.25;;;;;;;14.39;100.00;95017.72;6276286;22;20176;-87
2023/08/29 05:26:24;;;;;;;6.55;3.30;;;;;;;14.37;100.00;95041.22;6275608;22;20183;-87
2023/08/29 05:28:50;;;;;;;2.15;1.90;;;;;;;14.32;100.00;95054.00;6275051;22;20203;-87
2023/08/29 05:31:18;;;;;;;2.58;1.60;;;;;;;14.33;100.00;95055.59;6275922;22;20210;-88
2023/08/29 05:33:45;;;;;;;4.55;4.15;;;;;;;14.42;100.00;95040.63;6275714;22;20557;-88
2023/08/29 05:36:11;;;;;;;15.35;13.90;;;;;;;14.37;100.00;95040.44;6275561;22;20663;-86
2023/08/29 05:38:38;;;;;;;3.05;2.85;;;;;;;14.40;100.00;95027.88;6276221;22;20192;-87
2023/08/29 05:41:04;;;;;;;1.73;1.60;;;;;;;14.38;100.00;95037.63;6275782;22;20179;-88
2023/08/29 05:43:31;;;;;;;1.42;1.33;;;;;;;14.35;100.00;95032.09;6275843;22;20179;-87
2023/08/29 05:45:57;;;;;;;1.40;1.30;;;;;;;14.32;100.00;95028.13;6276464;22;20183;-88
2023/08/29 05:48:25;;;;;;;1.45;1.10;;;;;;;14.30;100.00;95032.72;6276164;22;20203;-87
2023/08/29 05:50:52;;;;;;;1.40;1.30;;;;;;;14.31;100.00;95044.66;6276187;22;20184;-89
2023/08/29 05:53:19;;;;;;;1.00;1.00;;;;;;;14.38;100.00;95034.25;6276629;22;20172;-87
2023/08/29 05:55:45;;;;;;;3.05;1.00;;;;;;;14.37;100.00;95041.22;6274739;22;20655;-87
2023/08/29 05:58:12;;;;;;;1.30;1.20;;;;;;;14.42;100.00;95056.97;6274968;22;20200;-87
2023/08/29 06:00:39;;;;;;;1.05;0.90;;;;;;;14.47;100.00;95036.38;6276634;22;20180;-87
2023/08/29 06:03:07;;;;;;;1.10;0.95;;;;;;;14.36;100.00;95037.06;6275063;22;20175;-88
2023/08/29 06:05:36;;;;;;;1.00;1.00;;;;;;;14.41;100.00;95045.00;6274657;22;20400;-87
2023/08/29 06:08:03;;;;;;;0.93;0.93;;;;;;;14.37;100.00;95051.59;6275464;22;20234;-86
2023/08/29 06:10:30;;;;;;;1.20;1.10;;;;;;;14.33;100.00;95065.16;6275275;22;20186;-86
2023/08/29 06:12:56;;;;;;;0.90;0.90;;;;;;;14.32;100.00;95061.00;6275611;22;20175;-87
2023/08/29 06:15:23;;;;;;;1.05;1.05;;;;;;;14.35;100.00;95060.56;6275614;22;20176;-87
2023/08/29 06:17:50;;;;;;;1.63;1.52;;;;;;;14.39;100.00;95067.72;6275666;22;20196;-88
2023/08/29 06:20:16;;;;;;;10.60;9.63;;;;;;;14.41;100.00;95065.72;6275102;22;20271;-87
2023/08/29 06:22:45;;;;;;;2.20;2.10;;;;;;;14.41;100.00;95076.09;6275407;22;20504;-88
2023/08/29 06:25:11;;;;;;;1.10;1.10;;;;;;;14.41;100.00;95076.09;6275460;22;20199;-87
2023/08/29 06:27:38;;;;;;;1.30;1.25;;;;;;;14.43;100.00;95083.66;6275511;22;20196;-88
2023/08/29 06:30:07;;;;;;;1.10;1.10;;;;;;;14.46;100.00;95086.59;6276269;22;20176;-87
2023/08/29 06:32:33;;;;;;;1.52;1.42;;;;;;;14.45;100.00;95085.00;6275323;22;20231;-87
2023/08/29 06:35:03;;;;;;;1.50;1.40;;;;;;;14.46;100.00;95086.59;6275030;22;20183;-87
2023/08/29 06:37:29;;;;;;;1.35;1.25;;;;;;;14.50;100.00;95097.31;6275215;22;20263;-87
2023/08/29 06:39:57;;;;;;;1.63;1.52;;;;;;;14.50;100.00;95092.94;6276456;22;20176;-87
2023/08/29 06:42:23;;;;;;;2.63;2.42;;;;;;;14.47;100.00;95103.72;6275851;22;20907;-86
2023/08/29 06:44:50;;;;;;;1.90;1.80;;;;;;;14.50;100.00;95105.88;6276063;22;20166;-88
2023/08/29 06:47:16;;;;;;;1.80;1.70;;;;;;;14.55;100.00;95113.03;6275131;22;20176;-87
2023/08/29 06:49:43;;;;;;;2.03;1.92;;;;;;;14.51;100.00;95122.22;6275654;22;20192;-87
2023/08/29 06:52:09;;;;;;;2.55;2.35;;;;;;;14.60;100.00;95127.94;6276295;22;20176;-86
2023/08/29 06:54:36;;;;;;;2.03;1.92;;;;;;;14.60;100.00;95128.75;6276226;22;20515;-87
2023/08/29 06:57:04;;;;;;;2.40;2.30;;;;;;;14.54;100.00;95128.78;6274847;22;20238;-89
2023/08/29 06:59:31;;;;;;;1.83;1.73;;;;;;;14.47;100.00;95139.97;6277046;22;20203;-87
2023/08/29 07:01:57;;;;;;;2.10;2.00;;;;;;;14.56;100.00;95142.31;6275778;22;20192;-87
2023/08/29 07:04:24;;;;;;;1.90;1.80;;;;;;;14.59;100.00;95140.09;6275604;22;20176;-87
2023/08/29 07:06:50;;;;;;;2.05;1.92;;;;;;;14.53;100.00;95135.75;6275686;22;20183;-88
2023/08/29 07:09:17;;;;;;;2.17;2.00;;;;;;;14.48;100.00;95138.97;6276013;22;20207;-88
2023/08/29 07:11:43;;;;;;;1.80;1.70;;;;;;;14.40;100.00;95172.09;6276412;22;20183;-86
2023/08/29 07:14:11;;;;;;;1.70;1.60;;;;;;;14.46;100.00;95172.06;6276715;22;20180;-87
2023/08/29 07:16:37;;;;;;;4.30;3.90;;;;;;;14.53;100.00;95164.25;6275781;22;20207;-88
2023/08/29 07:19:05;;;;;;;5.30;4.80;;;;;;;14.57;100.00;95154.28;6277566;22;20211;-87
2023/08/29 07:21:31;;;;;;;3.22;2.97;;;;;;;14.58;100.00;95148.09;6278187;22;20172;-87
2023/08/29 07:23:58;;;;;;;1.95;1.85;;;;;;;14.63;100.00;95161.97;6278238;22;20511;-87
2023/08/29 07:26:24;;;;;;;1.60;1.50;;;;;;;14.66;100.00;95165.94;6277490;22;20180;-88
2023/08/29 07:28:51;;;;;;;1.83;1.73;;;;;;;14.59;100.00;95158.25;6278529;22;20737;-88
2023/08/29 07:31:19;;;;;;;1.50;1.40;;;;;;;14.59;100.00;95155.66;6278543;22;20176;-88
2023/08/29 07:33:45;;;;;;;1.88;1.30;;;;;;;14.54;100.00;95168.44;6278489;22;20176;-87
2023/08/29 07:36:12;;;;;;;1.58;1.48;;;;;;;14.64;100.00;95165.34;6278145;22;20168;-87
2023/08/29 07:38:38;;;;;;;1.60;1.50;;;;;;;14.67;100.00;95162.34;6277894;22;20199;-87
2023/08/29 07:41:04;;;;;;;1.40;1.30;;;;;;;14.68;100.00;95151.78;6278009;22;20180;-88
2023/08/29 07:43:31;;;;;;;1.35;1.25;;;;;;;14.75;100.00;95162.88;6277391;22;20177;-88
2023/08/29 07:45:58;;;;;;;1.20;1.10;;;;;;;14.73;100.00;95157.13;6276468;22;20486;-87
2023/08/29 07:48:26;;;;;;;1.17;1.10;;;;;;;14.75;100.00;95157.69;6276602;22;20196;-87
2023/08/29 07:50:53;;;;;;;1.20;1.17;;;;;;;14.78;100.00;95167.66;6277322;22;20176;-88
2023/08/29 07:53:19;;;;;;;0.90;0.90;;;;;;;14.75;100.00;95157.69;6276270;22;20527;-87
2023/08/29 07:55:46;;;;;;;1.08;1.08;;;;;;;14.78;100.00;95152.09;6275870;22;20646;-88
2023/08/29 07:58:12;;;;;;;0.82;0.82;;;;;;;14.86;100.00;95153.59;6276758;22;20200;-87
2023/08/29 08:00:38;;;;;;;1.77;1.67;;;;;;;14.92;100.00;95144.19;6276629;22;20176;-87
2023/08/29 08:03:05;;;;;;;10.00;9.00;;;;;;;14.89;100.00;95142.03;6275663;22;20710;-87
2023/08/29 08:05:33;;;;;;;2.75;1.90;;;;;;;14.81;100.00;95143.09;6276932;22;20184;-87
2023/08/29 08:08:00;;;;;;;1.02;1.02;;;;;;;14.81;100.00;95143.09;6276914;22;20207;-87
2023/08/29 08:10:27;;;;;;;1.00;1.00;;;;;;;14.84;100.00;95153.03;6276342;22;20176;-87
2023/08/29 08:12:53;;;;;;;1.15;1.10;;;;;;;14.82;100.00;95178.38;6276771;22;20172;-87
2023/08/29 08:15:20;;;;;;;0.98;0.90;;;;;;;14.85;100.00;95178.75;6276426;22;20633;-87
2023/08/29 08:17:47;;;;;;;1.52;1.42;;;;;;;14.83;100.00;95180.75;6275955;22;20710;-87
2023/08/29 08:20:13;;;;;;;0.80;0.80;;;;;;;14.82;100.00;95184.34;6276462;22;20168;-86
2023/08/29 08:22:42;;;;;;;0.90;0.90;;;;;;;14.86;100.00;95185.50;6275989;22;20792;-88
2023/08/29 08:25:10;;;;;;;0.90;0.80;;;;;;;14.96;100.00;95194.63;6275720;22;20199;-87
2023/08/29 08:27:36;;;;;;;0.80;0.80;;;;;;;15.02;100.00;95171.19;6275528;22;20176;-88
2023/08/29 08:30:05;;;;;;;0.70;0.70;;;;;;;15.08;100.00;95179.94;6275913;22;20187;-87
2023/08/29 08:32:31;;;;;;;0.80;0.80;;;;;;;15.08;100.00;95169.56;6275010;22;20172;-87
2023/08/29 08:34:59;;;;;;;0.77;0.77;;;;;;;15.03;100.00;95166.81;6275748;22;20178;-87
2023/08/29 08:37:26;;;;;;;0.70;0.70;;;;;;;15.01;100.00;95189.59;6275377;22;20176;-87
2023/08/29 08:39:53;;;;;;;0.70;0.70;;;;;;;14.99;100.00;95197.59;6275945;22;20177;-87
2023/08/29 08:42:20;;;;;;;0.70;0.70;;;;;;;15.00;100.00;95200.97;6275891;22;20195;-87
2023/08/29 08:44:46;;;;;;;1.90;0.82;;;;;;;15.04;100.00;95209.88;6275975;22;20521;-87
2023/08/29 08:47:13;;;;;;;0.70;0.70;;;;;;;15.10;100.00;95199.47;6275599;22;20176;-87
2023/08/29 08:49:40;;;;;;;0.73;0.73;;;;;;;15.18;100.00;95183.63;6276568;22;20208;-87
2023/08/29 08:52:10;;;;;;;1.20;1.10;;;;;;;15.17;100.00;95174.28;6276776;22;20172;-87
2023/08/29 08:54:37;;;;;;;1.58;1.30;;;;;;;15.04;100.00;95202.91;6276145;22;20164;-87
2023/08/29 08:57:05;;;;;;;0.95;0.90;;;;;;;14.96;100.00;95230.91;6274892;22;20187;-87
2023/08/29 08:59:32;;;;;;;0.80;0.80;;;;;;;15.09;100.00;95234.19;6276726;22;20188;-86
2023/08/29 09:01:58;;;;;;;0.90;0.90;;;;;;;15.08;100.00;95209.25;6275811;22;20511;-87
2023/08/29 09:04:25;;;;;;;0.90;0.90;;;;;;;15.13;100.00;95203.44;6275786;22;20179;-87
2023/08/29 09:06:51;;;;;;;0.80;0.80;;;;;;;15.15;100.00;95193.63;6275518;22;20180;-86
2023/08/29 09:09:19;;;;;;;2.25;0.95;;;;;;;15.21;100.00;95184.97;6276103;22;20264;-86
2023/08/29 09:11:52;;;;;;;1.10;1.00;;;;;;;15.23;100.00;95184.78;6274715;22;20187;-87
2023/08/29 09:14:20;;;;;;;2.17;2.08;;;;;;;15.17;100.00;95202.78;6275121;22;20160;-88
2023/08/29 09:16:46;;;;;;;1.65;1.20;;;;;;;15.22;100.00;95209.91;6275631;22;20251;-86
2023/08/29 09:19:14;;;;;;;2.13;1.90;;;;;;;15.23;100.00;95223.66;6276034;22;20195;-87
2023/08/29 09:21:43;;;;;;;1.10;1.00;;;;;;;15.21;100.00;95198.75;6275872;22;20180;-87
2023/08/29 09:24:12;;;;;;;0.95;0.95;;;;;;;15.11;100.00;95215.81;6277165;22;20175;-87
2023/08/29 09:26:39;;;;;;;1.27;0.90;;;;;;;15.11;100.00;95219.19;6276906;22;20181;-87
2023/08/29 09:29:17;;;;;;;1.10;1.10;;;;;;;15.23;100.00;95232.25;6275919;22;20200;-86
2023/08/29 09:31:46;;;;;;;1.20;1.15;;;;;;;15.37;100.00;95227.75;6275047;22;20639;-87
2023/08/29 09:34:27;;;;;;;1.73;1.63;;;;;;;15.41;100.00;95234.06;6276714;22;20176;-87
2023/08/29 09:36:54;;;;;;;5.13;4.72;;;;;;;15.38;100.00;95226.75;6274819;22;20192;-87
2023/08/29 09:39:21;;;;;;;1.50;1.40;;;;;;;15.38;100.00;95230.13;6274734;22;20243;-87
2023/08/29 09:41:59;;;;;;;1.15;1.10;;;;;;;15.50;100.00;95232.78;6275256;22;20176;-87
2023/08/29 09:44:26;;;;;;;1.30;1.20;;;;;;;15.47;100.00;95248.78;6274834;22;20339;-87
2023/08/29 09:46:53;;;;;;;1.42;1.10;;;;;;;15.57;100.00;95237.97;6274829;22;20179;-87
2023/08/29 09:49:20;;;;;;;1.30;1.20;;;;;;;15.50;100.00;95236.19;6274716;22;20196;-87
2023/08/29 09:51:48;;;;;;;1.35;1.10;;;;;;;15.50;100.00;95243.19;6273443;22;20179;-86
2023/08/29 09:54:19;;;;;;;1.30;1.08;;;;;;;15.49;100.00;95246.78;6275634;22;20183;-86
2023/08/29 09:56:46;;;;;;;1.25;1.10;;;;;;;15.52;100.00;95257.53;6273004;22;20187;-87
2023/08/29 09:59:17;;;;;;;1.00;1.00;;;;;;;15.53;100.00;95258.31;6274768;22;20191;-87
2023/08/29 10:01:45;;;;;;;1.10;1.00;;;;;;;15.53;100.00;95279.88;6273761;22;20217;-86
2023/08/29 10:04:15;;;;;;;1.20;1.10;;;;;;;15.66;100.00;95278.97;6273572;22;20212;-87
2023/08/29 10:06:44;;;;;;;1.00;1.00;;;;;;;15.67;100.00;95282.38;6273597;22;20471;-87
2023/08/29 10:09:11;;;;;;;1.25;1.15;;;;;;;15.76;100.00;95275.88;6273944;22;20200;-87
2023/08/29 10:11:38;;;;;;;1.65;1.00;;;;;;;15.74;100.00;95273.50;6273621;22;20252;-87
2023/08/29 10:14:06;;;;;;;1.00;1.00;;;;;;;15.80;100.00;95253.66;6273960;22;20172;-87
2023/08/29 10:16:33;;;;;;;1.20;1.10;;;;;;;15.85;100.00;95246.81;6272809;22;20176;-87
2023/08/29 10:19:01;;;;;;;0.90;0.90;;;;;;;15.82;100.00;95257.63;6272832;22;20214;-87
2023/08/29 10:21:29;;;;;;;0.90;0.90;;;;;;;15.79;100.00;95273.63;6273398;22;20684;-87
2023/08/29 10:23:56;;;;;;;2.25;1.00;;;;;;;15.76;100.00;95276.69;6273051;22;20225;-87
2023/08/29 10:26:25;;;;;;;6.25;5.72;;;;;;;15.80;100.00;95272.63;6272759;22;20179;-88
2023/08/29 10:28:52;;;;;;;5.25;4.75;;;;;;;15.85;100.00;95283.16;6273151;22;20196;-87
2023/08/29 10:31:20;;;;;;;1.40;1.30;;;;;;;15.81;100.00;95278.63;6273588;22;20206;-87
2023/08/29 10:33:49;;;;;;;1.60;1.40;;;;;;;15.82;100.00;95286.19;6274163;22;20180;-87
2023/08/29 10:36:17;;;;;;;1.20;1.20;;;;;;;15.77;100.00;95265.28;6274640;22;20179;-87
2023/08/29 10:38:47;;;;;;;1.10;1.10;;;;;;;15.79;100.00;95263.25;6274015;22;20526;-87
2023/08/29 10:41:15;;;;;;;1.13;1.00;;;;;;;15.84;100.00;95254.81;6274408;22;20176;-87
2023/08/29 10:43:42;;;;;;;1.15;1.15;;;;;;;15.82;100.00;95229.06;6275494;22;20179;-88
2023/08/29 10:46:15;;;;;;;1.30;1.20;;;;;;;15.91;100.00;95249.56;6276251;22;20200;-88
2023/08/29 10:48:49;;;;;;;1.05;1.05;;;;;;;15.87;100.00;95259.59;6276416;22;20686;-87
2023/08/29 10:51:22;;;;;;;2.60;1.65;;;;;;;15.92;100.00;95225.19;6276012;22;20183;-87
2023/08/29 10:53:54;;;;;;;1.00;1.00;;;;;;;15.85;100.00;95225.25;6277031;22;20153;-87
2023/08/29 10:56:26;;;;;;;0.98;0.98;;;;;;;15.83;100.00;95225.47;6275911;22;20256;-87
2023/08/29 10:58:56;;;;;;;1.13;1.05;;;;;;;15.84;100.00;95234.84;6276295;22;20364;-88
2023/08/29 11:01:30;;;;;;;1.95;1.33;;;;;;;15.87;100.00;95246.59;6276794;22;20624;-88
2023/08/29 11:03:58;;;;;;;9.25;8.45;;;;;;;16.00;100.00;95237.84;6275875;22;20176;-87
2023/08/29 11:06:26;;;;;;;3.80;3.50;;;;;;;16.08;100.00;95240.97;6277169;22;20195;-88
2023/08/29 11:09:16;;;;;;;2.63;2.42;;;;;;;16.09;100.00;95236.56;6275615;22;20231;-87
2023/08/29 11:11:43;;;;;;;1.17;1.15;;;;;;;16.02;100.00;95208.06;6276404;22;20172;-87
2023/08/29 11:14:10;;;;;;;0.77;0.77;;;;;;;16.09;100.00;95198.38;6275865;22;20179;-88
2023/08/29 11:16:37;;;;;;;1.70;1.60;;;;;;;16.16;100.00;95201.69;6275611;22;20176;-88
2023/08/29 11:19:05;;;;;;;1.63;1.52;;;;;;;16.27;100.00;95233.13;6275350;22;20188;-87
2023/08/29 11:21:32;;;;;;;2.00;1.90;;;;;;;16.37;100.00;95238.56;6276232;22;20181;-88
2023/08/29 11:24:00;;;;;;;1.65;1.55;;;;;;;16.30;100.00;95249.06;6274692;22;20183;-87
2023/08/29 11:26:26;;;;;;;2.38;2.22;;;;;;;16.21;100.00;95245.19;6274499;22;20199;-87
2023/08/29 11:28:53;;;;;;;1.50;1.40;;;;;;;16.18;100.00;95210.03;6274069;22;20196;-88
2023/08/29 11:31:19;;;;;;;1.40;1.30;;;;;;;16.08;100.00;95196.81;6275188;22;20179;-87
2023/08/29 11:33:47;;;;;;;2.03;1.70;;;;;;;16.10;100.00;95201.78;6274626;22;20195;-87
2023/08/29 11:36:14;;;;;;;1.10;1.00;;;;;;;16.19;100.00;95209.03;6274036;22;20173;-87
2023/08/29 11:38:40;;;;;;;1.35;1.20;;;;;;;16.26;100.00;95216.75;6274371;22;20203;-87
2023/08/29 11:41:08;;;;;;;1.73;1.40;;;;;;;16.26;100.00;95244.53;6273412;22;20172;-87
2023/08/29 11:43:35;;;;;;;1.30;1.20;;;;;;;16.22;100.00;95241.56;6273270;22;20173;-87
2023/08/29 11:46:04;;;;;;;1.20;1.10;;;;;;;16.21;100.00;95227.00;6272839;22;20222;-87
2023/08/29 11:48:31;;;;;;;1.27;1.17;;;;;;;16.17;100.00;95225.84;6273083;22;20672;-87
2023/08/29 11:51:01;;;;;;;1.30;1.20;;;;;;;16.21;100.00;95248.56;6273486;22;20636;-87
2023/08/29 11:53:30;;;;;;;1.50;1.40;;;;;;;16.30;100.00;95238.69;6273924;22;20178;-87
2023/08/29 11:55:57;;;;;;;1.10;1.10;;;;;;;16.33;100.00;95227.06;6273665;22;20542;-87
2023/08/29 11:58:32;;;;;;;1.20;1.10;;;;;;;16.23;100.00;95205.00;6273969;22;20226;-87
2023/08/29 12:01:01;;;;;;;0.85;0.85;;;;;;;16.08;100.00;95198.59;6273615;22;20183;-87
2023/08/29 12:03:28;;;;;;;3.50;3.30;;;;;;;16.05;100.00;95223.22;6273728;22;20648;-87
2023/08/29 12:05:58;;;;;;;4.82;4.43;;;;;;;16.07;100.00;95221.19;6274426;22;20249;-87
2023/08/29 12:08:36;;;;;;;8.00;7.07;;;;;;;16.09;100.00;95228.75;6274763;22;20196;-87
2023/08/29 12:11:03;;;;;;;2.50;2.30;;;;;;;16.08;100.00;95246.16;6275397;22;20176;-87
2023/08/29 12:13:31;;;;;;;2.05;1.85;;;;;;;16.07;100.00;95273.13;6274820;22;20911;-88
2023/08/29 12:15:57;;;;;;;1.10;1.10;;;;;;;16.05;100.00;95256.97;6275732;22;20528;-87
2023/08/29 12:18:26;;;;;;;1.00;1.00;;;;;;;16.03;100.00;95233.03;6274329;22;20530;-87
2023/08/29 12:20:53;;;;;;;1.15;1.05;;;;;;;16.05;100.00;95228.41;6274926;22;20173;-87
2023/08/29 12:23:27;;;;;;;1.40;1.30;;;;;;;16.01;100.00;95240.22;6275703;22;20659;-87
2023/08/29 12:25:56;;;;;;;0.88;0.88;;;;;;;15.92;100.00;95248.56;6274568;22;20238;-87